Auburn, WA (98001)

10:10 AM PDT on August 30, 2015 (GMT -0700)
Celery Ave | | Change Station
CLOSE
Current Station
Personal Weather Station
Location: Algona, WA
Elevation: 66 ft
Nearby Weather Stations

Elev 66 ft 47.29 °N, 122.25 °W | Updated 6 minutes ago

Overcast
Overcast
60.3 °F
Feels Like 60.3 °F
N
4.0
Wind Variable Wind from SSE
Gusts 6.0 mph

Today
High -- | Low -- °F
--% Chance of Precip.
Yesterday
High -- | Low -- °F
Precip. -- in
6:25 AM 7:53 PM
Full, 99% visible
Pressure 29.92 in
Visibility 10.0 miles
Clouds Few 800 ft
Scattered Clouds 1400 ft
Mostly Cloudy 2300 ft
Dew Point 58 °F
Humidity 91%
Rainfall 0.91 in
Snow Depth Not available.
UV 2 out of 12
Pollen .50 out of 12
Air Quality Not available.
Flu Activity Not available.
METAR KSEA 301653Z 18009KT 10SM FEW008 SCT014 BKN023 16/14 A2990 RMK AO2 SLP131 T01560139
Pressure 29.92 in
Visibility 10.0 miles
Clouds Few 800 ft
Scattered Clouds 1400 ft
Mostly Cloudy 2300 ft
Dew Point 58 °F
Humidity 91%
Rainfall 0.91 in
Snow Depth Not available.
UV 2 out of 12
Pollen .50 out of 12
Air Quality Not available.
Flu Activity Not available.
METAR KSEA 301653Z 18009KT 10SM FEW008 SCT014 BKN023 16/14 A2990 RMK AO2 SLP131 T01560139

10-Day Weather Forecast

×

Almanac

Astronomy

Aug. 30, 2015 Rise Set
Actual Time
Civil Twilight
Nautical Twilight
Astronomical Twilight
Moon
Length of Visible Light
Length of Day
Tomorrow will be .
, % of the Moon is Illuminated

Today's Extremes

State Highs State Lows

Community

WunderPhotos

Upload Photos

1,851,014 photos uploaded!

WunderBlogs® & News

Nearby

Air Quality

  Air Quality AQ Index Pollutant
Not available.

Snow Depth

Station Depth Elevation

Earthquake Activity

City Distance Mag. Time & Date
Minimum magnitude displayed is 2.5.

Coastal Water Temperatures

Place Temperature

Stations

Nearby Weather Stations

Station Location Temp. Windchill Dew Point Humidity Wind Precip. Elev Updated Type